South Saint Paul, Minnesota
Current Conditions -  °F | °C
As of 8:30 AM on Sunday 23 Nov 2014 (Local Time) from KSGS Reporting Station
Haze Haze  
Wind Chill: 47°   Ceiling: 500
Heat Index: 48°   Visibility: 1.7mi
Dew Point: 47°   Wind: 5mph
Humidity: 95%   Direction: 140°SE
Pressure: 29.47"   Gusts: NA
Location:  44.89°N, 93.03°W
Report Text: KSGS 231430Z AUTO 14004KT 1 3/4SM BR OVC005 09/08 A2947 RMK AO2 T00910084
Loading
Personal Weather Stations






























Interactive Weather Map New forecast layout! Learn more

10-Day Weather Forecast

Advertisements
Track Severe Weather on mobile